sensor_id;sensor_type;location;lat;lon;timestamp;pressure;altitude;pressure_sealevel;temperature;humidity
6668;BME280;3370;47.712;9.082;2022-07-01T00:02:24;97097.59;;;13.90;100.00
6668;BME280;3370;47.712;9.082;2022-07-01T00:04:51;97100.81;;;13.94;100.00
6668;BME280;3370;47.712;9.082;2022-07-01T00:07:17;97103.00;;;14.02;100.00
6668;BME280;3370;47.712;9.082;2022-07-01T00:09:44;97097.16;;;13.98;100.00
6668;BME280;3370;47.712;9.082;2022-07-01T00:12:10;97102.53;;;14.09;100.00
6668;BME280;3370;47.712;9.082;2022-07-01T00:14:36;97106.00;;;13.94;100.00
6668;BME280;3370;47.712;9.082;2022-07-01T00:17:02;97111.09;;;13.95;100.00
6668;BME280;3370;47.712;9.082;2022-07-01T00:19:28;97115.69;;;13.90;100.00
6668;BME280;3370;47.712;9.082;2022-07-01T00:21:54;97105.88;;;13.81;100.00
6668;BME280;3370;47.712;9.082;2022-07-01T00:24:20;97106.38;;;13.88;100.00
6668;BME280;3370;47.712;9.082;2022-07-01T00:26:47;97088.19;;;13.89;100.00
6668;BME280;3370;47.712;9.082;2022-07-01T00:29:12;97085.03;;;13.84;100.00
6668;BME280;3370;47.712;9.082;2022-07-01T00:31:38;97076.88;;;13.76;100.00
6668;BME280;3370;47.712;9.082;2022-07-01T00:34:04;97067.31;;;13.78;100.00
6668;BME280;3370;47.712;9.082;2022-07-01T00:36:30;97052.72;;;13.77;100.00
6668;BME280;3370;47.712;9.082;2022-07-01T00:38:57;97047.53;;;13.77;100.00
6668;BME280;3370;47.712;9.082;2022-07-01T00:41:23;97037.03;;;13.80;100.00
6668;BME280;3370;47.712;9.082;2022-07-01T00:43:49;97026.50;;;13.69;100.00
6668;BME280;3370;47.712;9.082;2022-07-01T00:46:15;97013.56;;;13.69;100.00
6668;BME280;3370;47.712;9.082;2022-07-01T00:48:41;97013.94;;;13.77;100.00
6668;BME280;3370;47.712;9.082;2022-07-01T00:51:07;97012.84;;;13.81;100.00
6668;BME280;3370;47.712;9.082;2022-07-01T00:53:33;97018.84;;;13.82;100.00
6668;BME280;3370;47.712;9.082;2022-07-01T00:55:59;97028.25;;;13.83;100.00
6668;BME280;3370;47.712;9.082;2022-07-01T00:58:29;97032.22;;;13.88;100.00
6668;BME280;3370;47.712;9.082;2022-07-01T01:00:57;97033.81;;;13.91;100.00
6668;BME280;3370;47.712;9.082;2022-07-01T01:03:25;97030.94;;;13.95;100.00
6668;BME280;3370;47.712;9.082;2022-07-01T01:05:51;97025.78;;;13.95;100.00
6668;BME280;3370;47.712;9.082;2022-07-01T01:08:20;97020.63;;;14.10;100.00
6668;BME280;3370;47.712;9.082;2022-07-01T01:10:46;97030.22;;;14.08;100.00
6668;BME280;3370;47.712;9.082;2022-07-01T01:13:13;97020.63;;;14.10;100.00
6668;BME280;3370;47.712;9.082;2022-07-01T01:15:39;97003.00;;;14.16;100.00
6668;BME280;3370;47.712;9.082;2022-07-01T01:18:05;97002.25;;;14.29;100.00
6668;BME280;3370;47.712;9.082;2022-07-01T01:20:38;97032.34;;;14.15;100.00
6668;BME280;3370;47.712;9.082;2022-07-01T01:23:04;97052.22;;;14.15;100.00
6668;BME280;3370;47.712;9.082;2022-07-01T01:25:34;97051.38;;;14.14;100.00
6668;BME280;3370;47.712;9.082;2022-07-01T01:28:01;97044.53;;;14.13;100.00
6668;BME280;3370;47.712;9.082;2022-07-01T01:30:27;97038.16;;;14.19;100.00
6668;BME280;3370;47.712;9.082;2022-07-01T01:32:53;97029.59;;;14.33;100.00
6668;BME280;3370;47.712;9.082;2022-07-01T01:35:20;97024.88;;;14.40;100.00
6668;BME280;3370;47.712;9.082;2022-07-01T01:37:47;97030.72;;;14.43;100.00
6668;BME280;3370;47.712;9.082;2022-07-01T01:40:13;97016.75;;;14.46;100.00
6668;BME280;3370;47.712;9.082;2022-07-01T01:42:43;97005.84;;;14.41;100.00
6668;BME280;3370;47.712;9.082;2022-07-01T01:45:09;97011.19;;;14.52;100.00
6668;BME280;3370;47.712;9.082;2022-07-01T01:47:36;97002.59;;;14.37;100.00
6668;BME280;3370;47.712;9.082;2022-07-01T01:50:05;97001.41;;;14.43;100.00
6668;BME280;3370;47.712;9.082;2022-07-01T01:52:32;96994.59;;;14.42;100.00
6668;BME280;3370;47.712;9.082;2022-07-01T01:54:59;96997.16;;;14.56;100.00
6668;BME280;3370;47.712;9.082;2022-07-01T01:57:26;96990.69;;;14.49;100.00
6668;BME280;3370;47.712;9.082;2022-07-01T01:59:52;96998.00;;;14.42;100.00
6668;BME280;3370;47.712;9.082;2022-07-01T02:02:17;96987.19;;;14.35;100.00
6668;BME280;3370;47.712;9.082;2022-07-01T02:04:43;96978.03;;;14.30;100.00
6668;BME280;3370;47.712;9.082;2022-07-01T02:07:10;96974.53;;;14.31;100.00
6668;BME280;3370;47.712;9.082;2022-07-01T02:09:36;96972.31;;;14.25;100.00
6668;BME280;3370;47.712;9.082;2022-07-01T02:12:02;96969.09;;;14.21;100.00
6668;BME280;3370;47.712;9.082;2022-07-01T02:14:29;96967.44;;;14.20;100.00
6668;BME280;3370;47.712;9.082;2022-07-01T02:16:55;96973.91;;;14.27;100.00
6668;BME280;3370;47.712;9.082;2022-07-01T02:19:21;96980.28;;;14.36;100.00
6668;BME280;3370;47.712;9.082;2022-07-01T02:21:47;96984.31;;;14.40;100.00
6668;BME280;3370;47.712;9.082;2022-07-01T02:24:13;96979.72;;;14.31;100.00
6668;BME280;3370;47.712;9.082;2022-07-01T02:26:39;96993.84;;;14.11;100.00
6668;BME280;3370;47.712;9.082;2022-07-01T02:29:05;96983.50;;;14.11;100.00
6668;BME280;3370;47.712;9.082;2022-07-01T02:31:31;97001.22;;;14.17;100.00
6668;BME280;3370;47.712;9.082;2022-07-01T02:33:56;97002.19;;;14.16;100.00
6668;BME280;3370;47.712;9.082;2022-07-01T02:36:22;96999.03;;;14.11;100.00
6668;BME280;3370;47.712;9.082;2022-07-01T02:38:48;97005.13;;;14.10;100.00
6668;BME280;3370;47.712;9.082;2022-07-01T02:41:14;97015.63;;;14.07;100.00
6668;BME280;3370;47.712;9.082;2022-07-01T02:43:40;97026.34;;;14.15;100.00
6668;BME280;3370;47.712;9.082;2022-07-01T02:46:06;97029.69;;;14.17;100.00
6668;BME280;3370;47.712;9.082;2022-07-01T02:48:32;97044.19;;;14.19;100.00
6668;BME280;3370;47.712;9.082;2022-07-01T02:50:57;97052.78;;;14.20;100.00
6668;BME280;3370;47.712;9.082;2022-07-01T02:53:23;97054.16;;;14.26;100.00
6668;BME280;3370;47.712;9.082;2022-07-01T02:55:49;97067.34;;;14.21;100.00
6668;BME280;3370;47.712;9.082;2022-07-01T02:58:16;97064.97;;;14.18;100.00
6668;BME280;3370;47.712;9.082;2022-07-01T03:00:42;97065.41;;;14.25;100.00
6668;BME280;3370;47.712;9.082;2022-07-01T03:03:09;97083.31;;;13.99;100.00
6668;BME280;3370;47.712;9.082;2022-07-01T03:05:35;97084.31;;;13.96;100.00
6668;BME280;3370;47.712;9.082;2022-07-01T03:08:00;97066.97;;;13.98;100.00
6668;BME280;3370;47.712;9.082;2022-07-01T03:10:26;97077.31;;;13.98;100.00
6668;BME280;3370;47.712;9.082;2022-07-01T03:12:53;97072.47;;;13.78;100.00
6668;BME280;3370;47.712;9.082;2022-07-01T03:15:19;97075.25;;;13.59;100.00
6668;BME280;3370;47.712;9.082;2022-07-01T03:17:46;97078.19;;;13.69;100.00
6668;BME280;3370;47.712;9.082;2022-07-01T03:20:16;97097.59;;;13.60;100.00
6668;BME280;3370;47.712;9.082;2022-07-01T03:22:45;97110.78;;;13.55;100.00
6668;BME280;3370;47.712;9.082;2022-07-01T03:25:11;97111.50;;;13.57;100.00
6668;BME280;3370;47.712;9.082;2022-07-01T03:27:37;97113.78;;;13.64;100.00
6668;BME280;3370;47.712;9.082;2022-07-01T03:30:06;97109.88;;;13.56;100.00
6668;BME280;3370;47.712;9.082;2022-07-01T03:32:33;97114.94;;;13.58;100.00
6668;BME280;3370;47.712;9.082;2022-07-01T03:34:59;97122.13;;;13.37;100.00
6668;BME280;3370;47.712;9.082;2022-07-01T03:37:25;97136.88;;;13.35;100.00
6668;BME280;3370;47.712;9.082;2022-07-01T03:39:51;97132.47;;;13.37;100.00
6668;BME280;3370;47.712;9.082;2022-07-01T03:42:19;97133.63;;;13.31;100.00
6668;BME280;3370;47.712;9.082;2022-07-01T03:44:45;97134.78;;;13.26;100.00
6668;BME280;3370;47.712;9.082;2022-07-01T03:47:11;97142.13;;;13.33;100.00
6668;BME280;3370;47.712;9.082;2022-07-01T03:49:37;97143.69;;;13.36;100.00
6668;BME280;3370;47.712;9.082;2022-07-01T03:52:04;97139.31;;;13.38;100.00
6668;BME280;3370;47.712;9.082;2022-07-01T03:54:30;97131.28;;;13.42;100.00
6668;BME280;3370;47.712;9.082;2022-07-01T03:57:11;97144.28;;;13.41;100.00
6668;BME280;3370;47.712;9.082;2022-07-01T03:59:39;97146.53;;;13.31;100.00
6668;BME280;3370;47.712;9.082;2022-07-01T04:02:06;97153.91;;;13.21;100.00
6668;BME280;3370;47.712;9.082;2022-07-01T04:04:34;97140.44;;;13.16;100.00
6668;BME280;3370;47.712;9.082;2022-07-01T04:07:03;97154.09;;;13.18;100.00
6668;BME280;3370;47.712;9.082;2022-07-01T04:09:30;97151.16;;;13.09;100.00
6668;BME280;3370;47.712;9.082;2022-07-01T04:11:57;97153.50;;;13.13;100.00
6668;BME280;3370;47.712;9.082;2022-07-01T04:14:24;97150.91;;;13.13;100.00
6668;BME280;3370;47.712;9.082;2022-07-01T04:16:50;97155.94;;;13.16;100.00
6668;BME280;3370;47.712;9.082;2022-07-01T04:19:16;97161.09;;;13.16;100.00
6668;BME280;3370;47.712;9.082;2022-07-01T04:21:43;97167.41;;;13.11;100.00
6668;BME280;3370;47.712;9.082;2022-07-01T04:24:27;97176.47;;;13.02;100.00
6668;BME280;3370;47.712;9.082;2022-07-01T04:26:54;97184.22;;;13.02;100.00
6668;BME280;3370;47.712;9.082;2022-07-01T04:29:21;97191.66;;;12.91;100.00
6668;BME280;3370;47.712;9.082;2022-07-01T04:31:47;97181.84;;;12.81;100.00
6668;BME280;3370;47.712;9.082;2022-07-01T04:34:13;97183.38;;;12.85;100.00
6668;BME280;3370;47.712;9.082;2022-07-01T04:36:39;97188.28;;;12.90;100.00
6668;BME280;3370;47.712;9.082;2022-07-01T04:39:06;97202.31;;;12.84;100.00
6668;BME280;3370;47.712;9.082;2022-07-01T04:41:32;97204.91;;;12.84;100.00
6668;BME280;3370;47.712;9.082;2022-07-01T04:44:18;97207.81;;;12.78;100.00
6668;BME280;3370;47.712;9.082;2022-07-01T04:46:44;97220.78;;;12.77;100.00
6668;BME280;3370;47.712;9.082;2022-07-01T04:49:10;97218.28;;;12.75;100.00
6668;BME280;3370;47.712;9.082;2022-07-01T04:51:37;97215.38;;;12.81;100.00
6668;BME280;3370;47.712;9.082;2022-07-01T04:54:04;97215.31;;;12.83;100.00
6668;BME280;3370;47.712;9.082;2022-07-01T04:56:30;97210.91;;;12.85;100.00
6668;BME280;3370;47.712;9.082;2022-07-01T04:58:56;97219.78;;;12.79;100.00
6668;BME280;3370;47.712;9.082;2022-07-01T05:01:23;97214.63;;;12.79;100.00
6668;BME280;3370;47.712;9.082;2022-07-01T05:03:50;97217.59;;;12.72;100.00
6668;BME280;3370;47.712;9.082;2022-07-01T05:06:16;97229.06;;;12.66;100.00
6668;BME280;3370;47.712;9.082;2022-07-01T05:08:42;97240.28;;;12.65;100.00
6668;BME280;3370;47.712;9.082;2022-07-01T05:11:08;97235.75;;;12.70;100.00
6668;BME280;3370;47.712;9.082;2022-07-01T05:13:34;97241.84;;;12.69;100.00
6668;BME280;3370;47.712;9.082;2022-07-01T05:16:00;97235.66;;;12.72;100.00
6668;BME280;3370;47.712;9.082;2022-07-01T05:18:26;97239.59;;;12.79;100.00
6668;BME280;3370;47.712;9.082;2022-07-01T05:21:11;97237.09;;;12.77;100.00
6668;BME280;3370;47.712;9.082;2022-07-01T05:23:56;97231.88;;;12.79;100.00
6668;BME280;3370;47.712;9.082;2022-07-01T05:26:22;97227.59;;;12.78;100.00
6668;BME280;3370;47.712;9.082;2022-07-01T05:28:48;97236.69;;;12.85;100.00
6668;BME280;3370;47.712;9.082;2022-07-01T05:31:14;97244.38;;;12.87;100.00
6668;BME280;3370;47.712;9.082;2022-07-01T05:33:40;97233.16;;;12.88;100.00
6668;BME280;3370;47.712;9.082;2022-07-01T05:36:06;97237.22;;;12.92;100.00
6668;BME280;3370;47.712;9.082;2022-07-01T05:38:32;97238.13;;;12.91;100.00
6668;BME280;3370;47.712;9.082;2022-07-01T05:40:58;97235.00;;;13.01;100.00
6668;BME280;3370;47.712;9.082;2022-07-01T05:43:24;97241.69;;;13.06;100.00
6668;BME280;3370;47.712;9.082;2022-07-01T05:45:50;97245.44;;;13.00;100.00
6668;BME280;3370;47.712;9.082;2022-07-01T05:48:15;97258.16;;;13.03;100.00
6668;BME280;3370;47.712;9.082;2022-07-01T05:50:42;97258.47;;;12.97;100.00
6668;BME280;3370;47.712;9.082;2022-07-01T05:53:09;97263.50;;;13.16;100.00
6668;BME280;3370;47.712;9.082;2022-07-01T05:55:35;97266.34;;;13.11;100.00
6668;BME280;3370;47.712;9.082;2022-07-01T05:58:01;97278.31;;;13.12;100.00
6668;BME280;3370;47.712;9.082;2022-07-01T06:00:30;97272.06;;;13.00;100.00
6668;BME280;3370;47.712;9.082;2022-07-01T06:02:56;97282.38;;;13.00;100.00
6668;BME280;3370;47.712;9.082;2022-07-01T06:05:22;97285.66;;;13.04;100.00
6668;BME280;3370;47.712;9.082;2022-07-01T06:07:48;97293.69;;;12.98;100.00
6668;BME280;3370;47.712;9.082;2022-07-01T06:10:14;97304.00;;;13.15;100.00
6668;BME280;3370;47.712;9.082;2022-07-01T06:12:40;97314.94;;;13.03;100.00
6668;BME280;3370;47.712;9.082;2022-07-01T06:15:09;97313.78;;;13.09;100.00
6668;BME280;3370;47.712;9.082;2022-07-01T06:17:38;97326.34;;;13.16;100.00
6668;BME280;3370;47.712;9.082;2022-07-01T06:20:05;97323.75;;;13.16;100.00
6668;BME280;3370;47.712;9.082;2022-07-01T06:22:32;97316.44;;;13.24;100.00
6668;BME280;3370;47.712;9.082;2022-07-01T06:24:59;97310.06;;;13.32;100.00
6668;BME280;3370;47.712;9.082;2022-07-01T06:27:26;97311.53;;;13.20;100.00
6668;BME280;3370;47.712;9.082;2022-07-01T06:29:52;97312.56;;;13.16;100.00
6668;BME280;3370;47.712;9.082;2022-07-01T06:32:18;97311.41;;;13.21;100.00
6668;BME280;3370;47.712;9.082;2022-07-01T06:34:45;97321.16;;;13.16;100.00
6668;BME280;3370;47.712;9.082;2022-07-01T06:37:11;97316.78;;;13.01;100.00
6668;BME280;3370;47.712;9.082;2022-07-01T06:39:37;97314.66;;;13.09;100.00
6668;BME280;3370;47.712;9.082;2022-07-01T06:42:03;97303.47;;;13.09;100.00
6668;BME280;3370;47.712;9.082;2022-07-01T06:44:29;97293.78;;;12.96;100.00
6668;BME280;3370;47.712;9.082;2022-07-01T06:46:55;97293.25;;;12.90;100.00
6668;BME280;3370;47.712;9.082;2022-07-01T06:49:21;97302.06;;;12.85;100.00
6668;BME280;3370;47.712;9.082;2022-07-01T06:51:47;97298.81;;;12.82;100.00
6668;BME280;3370;47.712;9.082;2022-07-01T06:54:14;97302.44;;;12.78;100.00
6668;BME280;3370;47.712;9.082;2022-07-01T06:56:41;97307.97;;;12.70;100.00
6668;BME280;3370;47.712;9.082;2022-07-01T06:59:07;97323.38;;;12.72;100.00
6668;BME280;3370;47.712;9.082;2022-07-01T07:01:34;97324.16;;;12.74;100.00
6668;BME280;3370;47.712;9.082;2022-07-01T07:04:00;97319.59;;;12.79;100.00
6668;BME280;3370;47.712;9.082;2022-07-01T07:06:26;97331.22;;;12.88;100.00
6668;BME280;3370;47.712;9.082;2022-07-01T07:08:52;97325.72;;;12.94;100.00
6668;BME280;3370;47.712;9.082;2022-07-01T07:11:18;97311.38;;;13.06;100.00
6668;BME280;3370;47.712;9.082;2022-07-01T07:13:45;97295.81;;;13.07;100.00
6668;BME280;3370;47.712;9.082;2022-07-01T07:16:11;97300.88;;;13.09;100.00
6668;BME280;3370;47.712;9.082;2022-07-01T07:18:37;97300.88;;;13.09;100.00
6668;BME280;3370;47.712;9.082;2022-07-01T07:21:04;97309.63;;;13.06;100.00
6668;BME280;3370;47.712;9.082;2022-07-01T07:23:30;97305.81;;;13.13;100.00
6668;BME280;3370;47.712;9.082;2022-07-01T07:25:55;97307.66;;;13.11;100.00
6668;BME280;3370;47.712;9.082;2022-07-01T07:28:22;97316.22;;;13.29;100.00
6668;BME280;3370;47.712;9.082;2022-07-01T07:30:48;97321.66;;;13.23;100.00
6668;BME280;3370;47.712;9.082;2022-07-01T07:33:14;97319.25;;;13.37;100.00
6668;BME280;3370;47.712;9.082;2022-07-01T07:35:40;97325.09;;;13.41;100.00
6668;BME280;3370;47.712;9.082;2022-07-01T07:38:06;97327.31;;;13.31;100.00
6668;BME280;3370;47.712;9.082;2022-07-01T07:40:34;97311.00;;;13.31;100.00
6668;BME280;3370;47.712;9.082;2022-07-01T07:43:00;97300.78;;;13.28;100.00
6668;BME280;3370;47.712;9.082;2022-07-01T07:45:26;97293.88;;;13.28;100.00
6668;BME280;3370;47.712;9.082;2022-07-01T07:47:52;97299.44;;;13.20;100.00
6668;BME280;3370;47.712;9.082;2022-07-01T07:50:21;97310.09;;;13.14;100.00
6668;BME280;3370;47.712;9.082;2022-07-01T07:52:47;97323.28;;;13.26;100.00
6668;BME280;3370;47.712;9.082;2022-07-01T07:55:13;97317.75;;;13.33;100.00
6668;BME280;3370;47.712;9.082;2022-07-01T07:57:41;97311.56;;;13.36;100.00
6668;BME280;3370;47.712;9.082;2022-07-01T08:00:09;97308.19;;;13.51;100.00
6668;BME280;3370;47.712;9.082;2022-07-01T08:02:36;97304.88;;;13.49;100.00
6668;BME280;3370;47.712;9.082;2022-07-01T08:05:02;97301.88;;;13.57;100.00
6668;BME280;3370;47.712;9.082;2022-07-01T08:07:28;97322.78;;;13.68;100.00
6668;BME280;3370;47.712;9.082;2022-07-01T08:09:55;97339.06;;;13.70;100.00
6668;BME280;3370;47.712;9.082;2022-07-01T08:12:21;97346.31;;;13.64;100.00
6668;BME280;3370;47.712;9.082;2022-07-01T08:14:48;97347.75;;;13.69;100.00
6668;BME280;3370;47.712;9.082;2022-07-01T08:19:44;97354.25;;;13.76;100.00
6668;BME280;3370;47.712;9.082;2022-07-01T08:22:10;97366.09;;;13.80;100.00
6668;BME280;3370;47.712;9.082;2022-07-01T08:24:35;97365.56;;;13.74;100.00
6668;BME280;3370;47.712;9.082;2022-07-01T08:27:01;97354.31;;;13.75;100.00
6668;BME280;3370;47.712;9.082;2022-07-01T08:29:27;97346.09;;;13.84;100.00
6668;BME280;3370;47.712;9.082;2022-07-01T08:31:53;97352.66;;;13.74;100.00
6668;BME280;3370;47.712;9.082;2022-07-01T08:34:19;97345.19;;;13.85;100.00
6668;BME280;3370;47.712;9.082;2022-07-01T08:36:44;97360.69;;;13.85;100.00
6668;BME280;3370;47.712;9.082;2022-07-01T08:39:10;97351.19;;;13.86;100.00
6668;BME280;3370;47.712;9.082;2022-07-01T08:41:37;97357.50;;;13.80;100.00
6668;BME280;3370;47.712;9.082;2022-07-01T08:44:05;97352.94;;;13.85;100.00
6668;BME280;3370;47.712;9.082;2022-07-01T08:46:30;97341.25;;;13.94;99.79
6668;BME280;3370;47.712;9.082;2022-07-01T08:48:57;97338.47;;;13.81;100.00
6668;BME280;3370;47.712;9.082;2022-07-01T08:51:23;97343.50;;;13.84;99.53
6668;BME280;3370;47.712;9.082;2022-07-01T08:53:48;97359.97;;;13.66;100.00
6668;BME280;3370;47.712;9.082;2022-07-01T08:56:14;97364.06;;;13.70;100.00
6668;BME280;3370;47.712;9.082;2022-07-01T08:58:59;97366.66;;;13.70;100.00
6668;BME280;3370;47.712;9.082;2022-07-01T09:01:25;97354.19;;;13.78;100.00
6668;BME280;3370;47.712;9.082;2022-07-01T09:03:54;97364.19;;;13.84;100.00
6668;BME280;3370;47.712;9.082;2022-07-01T09:06:27;97361.34;;;13.73;100.00
6668;BME280;3370;47.712;9.082;2022-07-01T09:08:53;97350.00;;;13.91;100.00
6668;BME280;3370;47.712;9.082;2022-07-01T09:11:25;97356.56;;;13.65;100.00
6668;BME280;3370;47.712;9.082;2022-07-01T09:14:10;97363.81;;;13.58;100.00
6668;BME280;3370;47.712;9.082;2022-07-01T09:19:38;97364.91;;;13.37;100.00
6668;BME280;3370;47.712;9.082;2022-07-01T09:22:05;97374.91;;;13.43;100.00
6668;BME280;3370;47.712;9.082;2022-07-01T09:24:42;97376.13;;;13.53;100.00
6668;BME280;3370;47.712;9.082;2022-07-01T09:27:13;97385.34;;;13.41;100.00
6668;BME280;3370;47.712;9.082;2022-07-01T09:29:53;97383.19;;;13.50;100.00
6668;BME280;3370;47.712;9.082;2022-07-01T09:32:21;97378.84;;;13.50;100.00
6668;BME280;3370;47.712;9.082;2022-07-01T09:34:53;97380.06;;;13.43;100.00
6668;BME280;3370;47.712;9.082;2022-07-01T09:37:22;97385.25;;;13.26;100.00
6668;BME280;3370;47.712;9.082;2022-07-01T09:39:56;97387.66;;;13.29;100.00
6668;BME280;3370;47.712;9.082;2022-07-01T09:42:25;97380.63;;;13.32;100.00
6668;BME280;3370;47.712;9.082;2022-07-01T09:45:04;97380.06;;;13.43;100.00
6668;BME280;3370;47.712;9.082;2022-07-01T09:47:40;97370.06;;;13.54;100.00
6668;BME280;3370;47.712;9.082;2022-07-01T09:50:07;97373.31;;;13.58;100.00
6668;BME280;3370;47.712;9.082;2022-07-01T09:52:34;97375.00;;;13.75;100.00
6668;BME280;3370;47.712;9.082;2022-07-01T09:55:00;97385.19;;;13.78;100.00
6668;BME280;3370;47.712;9.082;2022-07-01T09:57:26;97384.69;;;13.87;100.00
6668;BME280;3370;47.712;9.082;2022-07-01T09:59:52;97385.72;;;14.00;100.00
6668;BME280;3370;47.712;9.082;2022-07-01T10:02:20;97399.72;;;13.96;100.00
6668;BME280;3370;47.712;9.082;2022-07-01T10:04:54;97411.53;;;13.85;100.00
6668;BME280;3370;47.712;9.082;2022-07-01T10:13:15;97400.88;;;13.91;100.00
6668;BME280;3370;47.712;9.082;2022-07-01T10:15:42;97394.63;;;13.95;100.00
6668;BME280;3370;47.712;9.082;2022-07-01T10:18:23;97382.69;;;14.08;100.00
6668;BME280;3370;47.712;9.082;2022-07-01T10:20:50;97389.41;;;14.12;100.00
6668;BME280;3370;47.712;9.082;2022-07-01T10:23:21;97384.31;;;14.27;100.00
6668;BME280;3370;47.712;9.082;2022-07-01T10:25:53;97401.31;;;14.15;100.00
6668;BME280;3370;47.712;9.082;2022-07-01T10:28:26;97397.91;;;14.14;100.00
6668;BME280;3370;47.712;9.082;2022-07-01T10:30:57;97405.91;;;14.10;100.00
6668;BME280;3370;47.712;9.082;2022-07-01T10:44:05;97428.69;;;14.51;100.00
6668;BME280;3370;47.712;9.082;2022-07-01T10:49:08;97432.69;;;14.41;98.00
6668;BME280;3370;47.712;9.082;2022-07-01T10:51:54;97435.13;;;14.44;97.68
6668;BME280;3370;47.712;9.082;2022-07-01T11:02:33;97438.19;;;14.18;99.30
6668;BME280;3370;47.712;9.082;2022-07-01T11:05:19;97452.47;;;14.42;97.00
6668;BME280;3370;47.712;9.082;2022-07-01T11:07:46;97447.38;;;14.24;97.50
6668;BME280;3370;47.712;9.082;2022-07-01T11:10:15;97453.13;;;14.29;97.54
6668;BME280;3370;47.712;9.082;2022-07-01T11:12:42;97450.41;;;14.32;100.00
6668;BME280;3370;47.712;9.082;2022-07-01T11:15:14;97441.94;;;14.45;100.00
6668;BME280;3370;47.712;9.082;2022-07-01T11:17:47;97454.69;;;14.65;98.58
6668;BME280;3370;47.712;9.082;2022-07-01T11:20:14;97454.50;;;14.68;97.70
6668;BME280;3370;47.712;9.082;2022-07-01T11:22:40;97456.41;;;14.49;98.61
6668;BME280;3370;47.712;9.082;2022-07-01T11:25:10;97460.84;;;14.47;95.88
6668;BME280;3370;47.712;9.082;2022-07-01T11:27:37;97463.97;;;14.52;98.13
6668;BME280;3370;47.712;9.082;2022-07-01T11:30:07;97468.53;;;14.64;100.00
6668;BME280;3370;47.712;9.082;2022-07-01T11:32:38;97466.38;;;14.72;100.00
6668;BME280;3370;47.712;9.082;2022-07-01T11:35:09;97459.44;;;14.73;100.00
6668;BME280;3370;47.712;9.082;2022-07-01T11:38:15;97464.00;;;14.84;97.09
6668;BME280;3370;47.712;9.082;2022-07-01T11:41:05;97458.03;;;14.67;95.85
6668;BME280;3370;47.712;9.082;2022-07-01T11:43:36;97451.16;;;14.82;93.67
6668;BME280;3370;47.712;9.082;2022-07-01T11:46:04;97446.34;;;15.06;93.32
6668;BME280;3370;47.712;9.082;2022-07-01T11:48:31;97447.63;;;15.29;98.31
6668;BME280;3370;47.712;9.082;2022-07-01T11:50:59;97436.50;;;15.27;90.40
6668;BME280;3370;47.712;9.082;2022-07-01T11:53:25;97436.91;;;15.36;90.07
6668;BME280;3370;47.712;9.082;2022-07-01T11:55:52;97428.63;;;15.59;87.70
6668;BME280;3370;47.712;9.082;2022-07-01T11:58:18;97427.13;;;15.69;87.62
6668;BME280;3370;47.712;9.082;2022-07-01T12:00:44;97427.81;;;16.02;85.69
6668;BME280;3370;47.712;9.082;2022-07-01T12:03:10;97426.09;;;16.44;84.63
6668;BME280;3370;47.712;9.082;2022-07-01T12:05:36;97429.66;;;16.97;80.56
6668;BME280;3370;47.712;9.082;2022-07-01T12:08:04;97425.81;;;17.56;81.24
6668;BME280;3370;47.712;9.082;2022-07-01T12:10:30;97432.06;;;17.92;77.88
6668;BME280;3370;47.712;9.082;2022-07-01T12:12:56;97419.91;;;18.66;80.42
6668;BME280;3370;47.712;9.082;2022-07-01T12:15:23;97435.44;;;19.16;72.44
6668;BME280;3370;47.712;9.082;2022-07-01T12:17:49;97437.16;;;19.40;72.44
6668;BME280;3370;47.712;9.082;2022-07-01T12:20:15;97440.31;;;19.56;68.28
6668;BME280;3370;47.712;9.082;2022-07-01T12:22:41;97437.75;;;20.13;71.53
6668;BME280;3370;47.712;9.082;2022-07-01T12:25:11;97450.25;;;19.62;64.50
6668;BME280;3370;47.712;9.082;2022-07-01T12:27:39;97447.53;;;19.64;72.46
6668;BME280;3370;47.712;9.082;2022-07-01T12:30:13;97434.31;;;20.23;68.80
6668;BME280;3370;47.712;9.082;2022-07-01T12:32:48;97443.88;;;21.00;66.85
6668;BME280;3370;47.712;9.082;2022-07-01T12:35:24;97446.00;;;20.63;67.12
6668;BME280;3370;47.712;9.082;2022-07-01T12:38:03;97455.22;;;20.23;71.67
6668;BME280;3370;47.712;9.082;2022-07-01T12:40:33;97455.53;;;20.30;71.13
6668;BME280;3370;47.712;9.082;2022-07-01T12:42:59;97454.34;;;20.45;71.04
6668;BME280;3370;47.712;9.082;2022-07-01T12:45:32;97467.88;;;20.51;69.33
6668;BME280;3370;47.712;9.082;2022-07-01T12:48:00;97462.19;;;20.11;67.69
6668;BME280;3370;47.712;9.082;2022-07-01T12:50:30;97451.16;;;19.97;70.01
6668;BME280;3370;47.712;9.082;2022-07-01T12:53:11;97437.50;;;20.16;72.44
6668;BME280;3370;47.712;9.082;2022-07-01T12:55:46;97445.81;;;20.21;68.04
6668;BME280;3370;47.712;9.082;2022-07-01T12:58:20;97443.19;;;20.21;71.70
6668;BME280;3370;47.712;9.082;2022-07-01T13:00:48;97447.22;;;20.47;69.97
6668;BME280;3370;47.712;9.082;2022-07-01T13:03:20;97449.47;;;20.63;69.70
6668;BME280;3370;47.712;9.082;2022-07-01T13:05:46;97445.66;;;20.67;69.13
6668;BME280;3370;47.712;9.082;2022-07-01T13:08:12;97448.88;;;20.60;64.72
6668;BME280;3370;47.712;9.082;2022-07-01T13:10:43;97448.13;;;20.80;67.46
6668;BME280;3370;47.712;9.082;2022-07-01T13:13:09;97442.38;;;20.98;68.18
6668;BME280;3370;47.712;9.082;2022-07-01T13:15:35;97445.00;;;20.86;65.46
6668;BME280;3370;47.712;9.082;2022-07-01T13:18:03;97446.09;;;20.84;67.97
6668;BME280;3370;47.712;9.082;2022-07-01T13:20:29;97447.63;;;20.86;68.85
6668;BME280;3370;47.712;9.082;2022-07-01T13:22:55;97445.47;;;21.24;67.16
6668;BME280;3370;47.712;9.082;2022-07-01T13:25:22;97443.47;;;21.49;66.51
6668;BME280;3370;47.712;9.082;2022-07-01T13:27:48;97444.88;;;22.05;64.58
6668;BME280;3370;47.712;9.082;2022-07-01T13:30:18;97442.19;;;22.66;62.86
6668;BME280;3370;47.712;9.082;2022-07-01T13:32:44;97436.84;;;23.36;62.40
6668;BME280;3370;47.712;9.082;2022-07-01T13:35:12;97443.53;;;23.87;62.89
6668;BME280;3370;47.712;9.082;2022-07-01T13:37:39;97437.84;;;24.29;55.66
6668;BME280;3370;47.712;9.082;2022-07-01T13:40:07;97452.66;;;24.58;57.07
6668;BME280;3370;47.712;9.082;2022-07-01T13:42:33;97449.78;;;24.42;57.35
6668;BME280;3370;47.712;9.082;2022-07-01T13:44:59;97447.75;;;24.08;55.96
6668;BME280;3370;47.712;9.082;2022-07-01T13:47:25;97456.50;;;23.99;52.64
6668;BME280;3370;47.712;9.082;2022-07-01T13:49:51;97454.84;;;23.78;55.80